Luperon, Dominican Republic
Current Conditions -  °F | °C
As of 11:00 PM on Tuesday 25 Nov 2014 (Local Time) from MDPP Reporting Station
Scattered Clouds Scattered Clouds  
Wind Chill: 77°   Ceiling: Unl
Heat Index: 78°   Visibility: 6mi
Dew Point: 73°   Wind: 14mph
Humidity: 89%   Direction: 120°ESE
Pressure: 30.03"   Gusts: NA
Location:  19.89°N, 70.96°W
Report Text: MDPP 260300Z 12012KT 9999 SCT018 25/23 Q1017
Loading
Personal Weather Stations






























Interactive Weather Map New forecast layout! Learn more

10-Day Weather Forecast

Advertisements
Track Severe Weather on mobile